Time;durP1;ratioP1;P1;durP2;ratioP2;P2;SDS_P1;SDS_P2;PMS_P1;PMS_P2;Temp;Humidity;BMP_temperature;BMP_pressure;BME280_temperature;BME280_humidity;BME280_pressure;Samples;Min_cycle;Max_cycle;Signal;HPM_P1;HPM_P2
2023/10/08 00:00:51;;;;;;;7.82;4.63;;;18.00;99.90;;;-141.84;70.03;21021.25;5004739;28;20229;-64
2023/10/08 00:03:20;;;;;;;6.22;3.80;;;18.00;99.90;;;-141.84;70.18;21004.97;4997219;28;20361;-64
2023/10/08 00:05:50;;;;;;;5.00;4.30;;;18.00;99.90;;;-141.84;70.13;21025.31;5005278;28;20242;-64
2023/10/08 00:08:18;;;;;;;7.55;4.60;;;18.00;99.90;;;-141.84;70.09;21013.13;5005532;28;20237;-64
2023/10/08 00:10:47;;;;;;;7.30;4.28;;;18.00;99.90;;;-141.84;69.98;21015.16;5004894;28;20676;-64
2023/10/08 00:13:17;;;;;;;6.75;4.30;;;18.00;99.90;;;-141.84;70.60;21021.25;4996822;28;20280;-64
2023/10/08 00:15:52;;;;;;;8.35;4.63;;;18.00;99.90;;;-141.84;70.25;20992.78;5004178;28;20739;-64
2023/10/08 00:18:22;;;;;;;5.63;4.07;;;18.00;99.90;;;-141.84;71.24;20958.22;5004447;28;20245;-64
2023/10/08 00:20:58;;;;;;;5.47;4.40;;;18.00;99.90;;;-141.84;71.30;21009.03;5004355;28;20227;-64
2023/10/08 00:23:27;;;;;;;6.38;5.13;;;18.00;99.90;;;-141.84;71.70;21002.94;4996773;28;20229;-63
2023/10/08 00:25:56;;;;;;;7.60;4.70;;;18.20;99.90;;;-141.84;72.64;20960.25;5004233;28;20207;-63
2023/10/08 00:28:28;;;;;;;7.38;5.13;;;17.90;99.90;;;-141.84;73.50;20948.06;5004209;28;20756;-64
2023/10/08 00:30:57;;;;;;;10.27;5.38;;;17.80;99.90;;;-141.84;74.12;20948.06;4986037;28;20722;-64
2023/10/08 00:33:25;;;;;;;7.60;5.15;;;17.70;99.90;;;-141.84;74.68;20933.81;4976798;28;20235;-64
2023/10/08 00:35:55;;;;;;;7.90;5.32;;;17.70;99.90;;;-141.84;75.03;20903.34;4984857;28;20342;-64
2023/10/08 00:38:31;;;;;;;8.07;5.72;;;17.70;99.90;;;-141.84;74.20;21002.94;5003436;28;20721;-63
2023/10/08 00:41:00;;;;;;;8.18;5.45;;;17.70;99.90;;;-141.84;73.92;20952.13;5004261;28;20212;-63
2023/10/08 00:43:33;;;;;;;8.38;5.43;;;17.70;99.90;;;-141.84;74.36;20933.81;4996688;28;20548;-64
2023/10/08 00:46:01;;;;;;;9.60;5.93;;;17.70;99.90;;;-141.84;75.12;20941.97;5003929;28;20726;-63
2023/10/08 00:48:35;;;;;;;9.40;5.82;;;17.70;99.90;;;-141.84;75.49;20946.03;5003675;28;20237;-63
2023/10/08 00:51:23;;;;;;;10.05;6.35;;;17.60;99.90;;;-141.84;75.12;20939.94;5003693;28;20238;-63
2023/10/08 00:53:59;;;;;;;8.73;6.35;;;17.60;99.90;;;-141.84;74.33;20925.69;5004058;28;20235;-63
2023/10/08 00:56:46;;;;;;;8.38;5.70;;;17.70;99.90;;;-141.84;74.88;20944.00;5003791;28;20226;-63
2023/10/08 00:59:15;;;;;;;8.88;5.82;;;17.70;99.90;;;-141.84;75.61;20901.31;4996221;28;20236;-64
2023/10/08 01:01:51;;;;;;;9.38;6.00;;;17.70;99.90;;;-141.84;76.03;20897.25;5004116;28;20234;-63
2023/10/08 01:04:23;;;;;;;7.60;6.15;;;17.60;99.90;;;-141.84;76.37;20864.72;5003757;28;20226;-63
2023/10/08 01:06:55;;;;;;;9.27;6.05;;;17.60;99.90;;;-141.84;76.77;20880.97;5003484;28;20245;-64
2023/10/08 01:09:35;;;;;;;7.15;5.70;;;17.50;99.90;;;-141.84;76.74;20854.53;4995579;28;20238;-64
2023/10/08 01:12:15;;;;;;;10.57;5.95;;;17.50;99.90;;;-141.84;76.08;20950.09;5003449;28;20230;-63
2023/10/08 01:14:45;;;;;;;7.88;6.20;;;17.60;99.90;;;-141.84;76.02;20903.34;5003284;28;20726;-64
2023/10/08 01:17:16;;;;;;;8.05;5.82;;;17.60;99.90;;;-141.84;76.33;20862.69;4995530;28;20230;-63
2023/10/08 01:19:49;;;;;;;10.73;5.00;;;17.60;99.90;;;-141.84;77.37;20899.28;5003461;28;20736;-64
2023/10/08 01:22:21;;;;;;;9.18;5.63;;;17.40;99.90;;;-141.84;78.65;20801.69;5003532;28;20264;-63
2023/10/08 01:24:51;;;;;;;8.55;5.75;;;17.30;99.90;;;-141.84;79.60;20746.81;5002860;28;20312;-65
2023/10/08 01:27:21;;;;;;;12.63;6.13;;;17.00;99.90;;;-141.84;80.94;20720.38;4977020;28;20220;-63
2023/10/08 01:29:51;;;;;;;9.15;5.38;;;16.80;99.90;;;-141.84;82.19;20645.16;4992228;28;20658;-63
2023/10/08 01:32:22;;;;;;;7.25;5.07;;;16.50;99.90;;;-141.84;83.54;20610.59;5002681;28;20233;-64
2023/10/08 01:34:51;;;;;;;6.57;4.30;;;16.40;99.90;;;-141.84;82.79;20588.25;5002826;28;20199;-64
2023/10/08 01:37:21;;;;;;;6.05;3.90;;;16.20;99.90;;;-141.84;83.57;20551.66;4995776;28;20246;-63
2023/10/08 01:39:50;;;;;;;4.55;3.05;;;16.10;99.90;;;-141.84;84.44;20504.91;5003835;28;20662;-64
2023/10/08 01:42:20;;;;;;;3.00;1.98;;;15.90;99.90;;;-141.84;84.83;20460.19;4984321;28;20238;-64
2023/10/08 01:44:50;;;;;;;1.70;1.20;;;15.70;99.90;;;-141.84;83.85;20407.34;4983697;28;20765;-63
2023/10/08 01:47:19;;;;;;;1.75;0.90;;;15.40;99.90;;;-141.84;84.78;20395.13;4976309;28;20254;-64
2023/10/08 01:49:48;;;;;;;0.70;0.70;;;15.20;99.90;;;-141.84;84.97;20384.97;5002984;28;20239;-63
2023/10/08 01:52:20;;;;;;;0.85;0.57;;;15.10;99.90;;;-141.84;85.36;20317.91;5003566;28;20211;-65
2023/10/08 01:54:53;;;;;;;0.50;0.50;;;14.90;99.90;;;-141.84;85.12;20324.00;5003056;28;20265;-64
2023/10/08 01:57:21;;;;;;;0.52;0.30;;;14.80;99.90;;;-141.84;85.10;20326.03;4989070;28;20733;-64
2023/10/08 01:59:50;;;;;;;0.30;0.30;;;14.60;99.90;;;-141.84;84.41;20275.22;5003113;28;20222;-64
2023/10/08 02:02:18;;;;;;;0.40;0.40;;;14.50;99.90;;;-141.84;84.67;20277.25;5002769;28;20231;-64
2023/10/08 02:04:47;;;;;;;0.40;0.40;;;14.40;99.90;;;-141.84;85.10;20307.72;5002881;28;20302;-64
2023/10/08 02:07:15;;;;;;;0.30;0.30;;;14.30;99.90;;;-141.84;84.96;20246.75;4976008;28;20235;-65
2023/10/08 02:09:44;;;;;;;0.30;0.30;;;14.20;99.90;;;-141.84;84.94;20256.91;4999217;28;20744;-64
2023/10/08 02:12:14;;;;;;;0.20;0.20;;;14.10;99.90;;;-141.84;85.38;20246.75;4973536;28;20238;-64
2023/10/08 02:14:44;;;;;;;0.57;0.30;;;14.10;99.90;;;-141.84;86.14;20208.13;4964041;28;20659;-64
2023/10/08 02:17:13;;;;;;;0.28;0.28;;;14.00;99.90;;;-141.84;86.53;20191.88;4956020;28;20238;-64
2023/10/08 02:19:41;;;;;;;0.20;0.20;;;13.90;99.90;;;-141.84;87.23;20183.75;4965085;28;20204;-63
2023/10/08 02:22:10;;;;;;;0.20;0.20;;;13.80;99.90;;;-141.84;87.58;20179.69;4972363;28;20238;-63
2023/10/08 02:24:39;;;;;;;0.20;0.20;;;13.80;99.90;;;-141.84;87.60;20185.78;4998239;28;20292;-63
2023/10/08 02:27:08;;;;;;;0.28;0.28;;;13.80;99.90;;;-141.84;87.54;20157.31;5001149;28;20749;-63
2023/10/08 02:29:37;;;;;;;0.30;0.30;;;13.70;99.90;;;-141.84;87.88;20169.53;5002397;28;20603;-63
2023/10/08 02:32:05;;;;;;;0.30;0.20;;;13.70;99.90;;;-141.84;87.43;20132.94;5002538;28;20211;-63
2023/10/08 02:34:35;;;;;;;0.20;0.20;;;13.60;99.90;;;-141.84;87.37;20120.75;5002705;28;20238;-63
2023/10/08 02:37:04;;;;;;;0.25;0.25;;;13.60;99.90;;;-141.84;87.42;20145.13;5001862;28;20233;-63
2023/10/08 02:39:34;;;;;;;0.40;0.30;;;13.50;99.90;;;-141.84;87.20;20106.50;4996058;28;20234;-64
2023/10/08 02:42:03;;;;;;;0.35;0.30;;;13.50;99.90;;;-141.84;87.21;20114.63;4988448;28;20378;-64
2023/10/08 02:44:32;;;;;;;0.30;0.30;;;13.40;99.90;;;-141.84;87.93;20110.56;4984021;28;20314;-63
2023/10/08 02:47:03;;;;;;;0.30;0.30;;;13.30;99.90;;;-141.84;88.52;20106.50;4986838;28;20226;-63
2023/10/08 02:49:31;;;;;;;0.43;0.20;;;13.20;99.90;;;-141.84;87.39;20104.47;4997540;28;20301;-64
2023/10/08 02:51:59;;;;;;;0.30;0.30;;;13.30;99.90;;;-141.84;87.26;20071.97;5005559;28;20613;-64
2023/10/08 02:54:36;;;;;;;0.43;0.30;;;13.20;99.90;;;-141.84;87.75;20074.00;5005958;28;20776;-63
2023/10/08 02:57:10;;;;;;;0.30;0.30;;;13.10;99.90;;;-141.84;87.73;20071.97;5005413;28;20240;-63
2023/10/08 02:59:40;;;;;;;0.40;0.40;;;13.10;99.90;;;-141.84;87.17;20049.59;5005912;28;20319;-63
2023/10/08 03:02:15;;;;;;;0.40;0.40;;;13.10;99.90;;;-141.84;87.95;20063.81;5005653;28;20238;-63
2023/10/08 03:04:45;;;;;;;0.50;0.50;;;13.00;99.90;;;-141.84;88.04;20071.97;5005970;28;20206;-64
2023/10/08 03:07:21;;;;;;;0.40;0.40;;;13.00;99.90;;;-141.84;88.26;20021.16;4997562;28;20732;-65
2023/10/08 03:10:03;;;;;;;0.70;0.70;;;13.00;99.90;;;-141.84;89.01;20015.03;5005716;28;20254;-65
2023/10/08 03:12:32;;;;;;;0.60;0.60;;;13.00;99.90;;;-141.84;88.87;20045.53;4988329;28;20281;-64
2023/10/08 03:15:12;;;;;;;0.60;0.60;;;13.00;99.90;;;-141.84;88.49;20059.75;4986048;28;20286;-63
2023/10/08 03:17:50;;;;;;;0.50;0.50;;;13.00;99.90;;;-141.84;89.52;20002.84;4986975;28;20233;-62
2023/10/08 03:20:29;;;;;;;0.20;0.20;;;12.90;99.90;;;-141.84;89.54;20074.00;4990653;28;20226;-63
2023/10/08 03:22:58;;;;;;;0.30;0.30;;;12.90;99.90;;;-141.84;88.91;20039.44;5004836;28;20237;-63
2023/10/08 03:25:28;;;;;;;0.20;0.20;;;12.90;99.90;;;-141.84;87.26;20074.00;4997817;28;20211;-64
2023/10/08 03:27:59;;;;;;;0.30;0.30;;;12.90;99.90;;;-141.84;86.78;20039.44;5005222;28;20231;-63
2023/10/08 03:30:27;;;;;;;0.20;0.20;;;13.00;99.90;;;-141.84;87.84;20004.88;5004999;28;20227;-63
2023/10/08 03:32:56;;;;;;;0.60;0.30;;;12.80;99.90;;;-141.84;87.35;20010.97;5005318;28;20309;-64
2023/10/08 03:35:30;;;;;;;0.20;0.20;;;12.80;99.90;;;-141.84;87.67;20021.16;4997529;28;20601;-63
2023/10/08 03:38:21;;;;;;;0.30;0.20;;;12.80;99.90;;;-141.84;86.98;20013.00;5005066;28;20217;-64
2023/10/08 03:40:50;;;;;;;1.10;0.30;;;12.80;99.90;;;-141.84;86.64;19990.66;5005005;28;20226;-63
2023/10/08 03:43:24;;;;;;;0.30;0.20;;;12.70;99.90;;;-141.84;87.21;20019.13;4997839;28;20211;-63
2023/10/08 03:45:54;;;;;;;0.70;0.30;;;12.70;99.90;;;-141.84;87.93;20017.09;5005376;28;20227;-65
2023/10/08 03:48:29;;;;;;;0.20;0.20;;;12.70;99.90;;;-141.84;87.79;20019.13;5005020;28;20226;-63
2023/10/08 03:51:00;;;;;;;0.20;0.20;;;12.70;99.90;;;-141.84;87.88;19996.75;5004636;28;20328;-64
2023/10/08 03:53:31;;;;;;;0.83;0.30;;;12.60;99.90;;;-141.84;88.08;19984.56;4997259;28;20277;-63
2023/10/08 03:56:05;;;;;;;0.20;0.20;;;12.70;99.90;;;-141.84;87.49;20000.81;4994497;28;20773;-63
2023/10/08 03:58:40;;;;;;;0.20;0.20;;;12.70;99.90;;;-141.84;87.70;20004.88;4985363;28;20693;-63
2023/10/08 04:01:10;;;;;;;0.50;0.50;;;12.60;99.90;;;-141.84;87.97;19962.19;5001821;28;20246;-62
2023/10/08 04:03:57;;;;;;;0.57;0.50;;;12.70;99.90;;;-141.84;87.32;19976.44;4989706;28;20722;-64
2023/10/08 04:06:37;;;;;;;0.60;0.60;;;12.60;99.90;;;-141.84;87.88;19986.59;4998324;28;20304;-64
2023/10/08 04:09:16;;;;;;;0.70;0.70;;;12.50;99.90;;;-141.84;87.83;19990.66;4993731;28;20305;-64
2023/10/08 04:11:55;;;;;;;1.00;1.00;;;12.50;99.90;;;-141.84;87.72;19966.28;4992007;28;20249;-64
2023/10/08 04:14:28;;;;;;;1.00;1.00;;;12.50;99.90;;;-141.84;87.63;19950.00;5003771;28;20226;-64
2023/10/08 04:16:58;;;;;;;1.67;1.10;;;12.50;99.90;;;-141.84;88.50;19972.38;5004037;28;20218;-64
2023/10/08 04:19:28;;;;;;;1.40;1.30;;;12.50;99.90;;;-141.84;88.22;19984.56;4997282;28;20207;-65
2023/10/08 04:21:57;;;;;;;1.50;1.40;;;12.50;99.90;;;-141.84;87.78;19964.25;5003807;28;20256;-64
2023/10/08 04:24:35;;;;;;;1.57;1.37;;;12.50;99.90;;;-141.84;88.33;19960.16;5004246;28;20265;-64
2023/10/08 04:27:05;;;;;;;1.97;1.20;;;12.50;99.90;;;-141.84;89.25;19956.09;5003660;28;20226;-65
2023/10/08 04:29:36;;;;;;;1.77;1.17;;;12.40;99.90;;;-141.84;89.20;19939.84;4999739;28;20593;-64
2023/10/08 04:32:09;;;;;;;1.30;1.20;;;12.50;99.90;;;-141.84;89.44;19913.44;5004086;28;20227;-63
2023/10/08 04:34:44;;;;;;;1.20;1.10;;;12.40;99.90;;;-141.84;89.62;19943.91;5004490;28;20211;-64
2023/10/08 04:37:13;;;;;;;1.40;1.30;;;12.50;99.90;;;-141.84;89.59;19962.19;4996466;28;20215;-63
2023/10/08 04:39:54;;;;;;;1.70;1.50;;;12.50;99.90;;;-141.84;87.30;19952.03;5003956;28;20325;-64
2023/10/08 04:42:26;;;;;;;1.07;0.90;;;12.50;99.90;;;-141.84;86.04;19972.38;5003919;28;20234;-63
2023/10/08 04:44:55;;;;;;;1.27;0.80;;;12.60;99.90;;;-141.84;87.11;19958.13;5003912;28;20238;-63
2023/10/08 04:47:33;;;;;;;1.92;0.80;;;12.40;99.90;;;-141.84;86.90;19941.88;4996216;28;20324;-63
2023/10/08 04:50:05;;;;;;;1.27;0.70;;;12.30;99.90;;;-141.84;88.00;19907.31;5004302;28;20213;-63
2023/10/08 04:52:45;;;;;;;1.60;0.80;;;12.20;99.90;;;-141.84;88.54;19913.44;4992877;28;20258;-63
2023/10/08 04:55:20;;;;;;;1.87;1.00;;;12.10;99.90;;;-141.84;88.89;19895.13;4976184;28;20306;-64
2023/10/08 04:57:49;;;;;;;1.48;1.00;;;12.00;99.90;;;-141.84;88.20;19891.06;5000020;28;20283;-63
2023/10/08 05:00:40;;;;;;;2.73;1.20;;;12.10;99.90;;;-141.84;88.13;19909.34;5003243;28;20319;-64
2023/10/08 05:03:13;;;;;;;2.63;1.40;;;12.00;99.90;;;-141.84;88.65;19891.06;5003459;28;20313;-64
2023/10/08 05:06:07;;;;;;;1.93;1.20;;;11.90;99.90;;;-141.84;89.00;19876.84;5003892;28;20226;-64
2023/10/08 05:08:47;;;;;;;3.47;1.50;;;11.80;99.90;;;-141.84;88.61;19911.41;5002743;28;20789;-64
2023/10/08 05:11:24;;;;;;;1.87;1.30;;;11.90;99.90;;;-141.84;88.13;19882.94;4979921;28;20657;-63
2023/10/08 05:14:05;;;;;;;2.40;1.13;;;11.80;99.90;;;-141.84;88.45;19901.22;4993554;28;20199;-63
2023/10/08 05:16:43;;;;;;;2.80;1.30;;;11.70;99.90;;;-141.84;88.95;19866.69;4993755;28;20222;-63
2023/10/08 05:19:47;;;;;;;3.73;1.10;;;11.70;99.90;;;-141.84;88.05;19884.97;4998141;28;20238;-64
2023/10/08 05:22:33;;;;;;;1.87;1.20;;;11.90;99.90;;;-141.84;87.38;19891.06;4993422;28;20226;-64
2023/10/08 05:25:11;;;;;;;2.83;1.20;;;11.70;99.90;;;-141.84;88.14;19838.22;5003051;28;20737;-63
2023/10/08 05:30:38;;;;;;;1.70;1.30;;;11.50;99.90;;;-141.84;88.46;19842.28;5003167;28;20370;-63
2023/10/08 05:33:12;;;;;;;3.50;1.30;;;11.60;99.90;;;-141.84;88.40;19836.19;5002942;28;20231;-64
2023/10/08 05:35:54;;;;;;;3.57;1.47;;;11.60;99.90;;;-141.84;88.38;19878.88;5003023;28;20237;-63
2023/10/08 05:38:37;;;;;;;3.60;1.40;;;11.60;99.90;;;-141.84;89.07;19821.97;5003170;28;20230;-64
2023/10/08 05:41:16;;;;;;;4.17;1.30;;;11.50;99.90;;;-141.84;89.34;19840.25;4997210;28;20211;-61
2023/10/08 05:44:13;;;;;;;3.77;1.47;;;11.50;99.90;;;-141.84;88.75;19836.19;4983440;28;20707;-62
2023/10/08 05:47:06;;;;;;;2.07;1.30;;;11.60;99.90;;;-141.84;89.44;19791.47;4983688;28;20227;-61
2023/10/08 05:49:54;;;;;;;2.28;1.40;;;11.50;99.90;;;-141.84;90.09;19821.97;4981058;28;20255;-62
2023/10/08 05:52:41;;;;;;;3.00;1.50;;;11.50;99.90;;;-141.84;90.66;19819.94;4964287;28;20316;-62
2023/10/08 05:55:25;;;;;;;3.20;1.20;;;11.40;99.90;;;-141.84;89.20;19846.34;4982102;28;20300;-61
2023/10/08 05:58:13;;;;;;;3.80;1.77;;;11.50;99.90;;;-141.84;89.30;19797.59;5002467;28;20230;-62
2023/10/08 06:01:05;;;;;;;3.57;1.53;;;11.40;99.90;;;-141.84;90.07;19801.66;5002848;28;20242;-62
2023/10/08 06:03:36;;;;;;;2.83;1.20;;;11.40;99.90;;;-141.84;90.42;19838.22;4998094;28;20244;-61
2023/10/08 06:12:07;;;;;;;2.93;1.80;;;11.50;99.90;;;-141.84;90.85;19819.94;4952044;28;20251;-61
2023/10/08 06:15:08;;;;;;;2.77;1.40;;;11.50;99.90;;;-141.84;88.04;19852.44;4970621;28;20226;-61
2023/10/08 06:20:26;;;;;;;4.60;1.53;;;11.50;99.90;;;-141.84;87.76;19830.09;4986978;28;20237;-61
2023/10/08 06:23:01;;;;;;;2.83;1.40;;;11.50;99.90;;;-141.84;88.52;19834.16;5001679;28;20256;-61
2023/10/08 06:25:30;;;;;;;4.77;1.30;;;11.50;99.90;;;-141.84;88.54;19830.09;4999033;28;25833;-61
2023/10/08 06:28:02;;;;;;;3.00;1.50;;;11.60;99.90;;;-141.84;87.60;19850.41;5006282;28;20246;-61
2023/10/08 06:30:34;;;;;;;2.43;1.47;;;11.60;99.90;;;-141.84;88.27;19821.97;5006142;28;20264;-61
2023/10/08 06:33:04;;;;;;;3.57;1.70;;;11.60;99.90;;;-141.84;89.02;19805.72;5006552;28;20484;-61
2023/10/08 06:35:33;;;;;;;3.67;1.60;;;11.50;99.90;;;-141.84;89.02;19846.34;5000744;28;20230;-62
2023/10/08 06:38:07;;;;;;;3.30;1.80;;;11.50;99.90;;;-141.84;89.33;19850.41;5006578;28;20206;-62
2023/10/08 06:40:44;;;;;;;3.13;1.83;;;11.60;99.90;;;-141.84;89.81;19826.03;5006393;28;20221;-61
2023/10/08 06:43:21;;;;;;;4.17;1.90;;;11.60;99.90;;;-141.84;89.52;19842.28;4998375;28;20254;-61
2023/10/08 06:45:53;;;;;;;4.17;2.17;;;11.60;99.90;;;-141.84;89.66;19834.16;4989466;28;20242;-61
2023/10/08 06:48:23;;;;;;;3.70;2.23;;;11.60;99.90;;;-141.84;89.39;19826.03;4999804;28;20230;-62
2023/10/08 06:50:57;;;;;;;4.93;2.50;;;11.70;99.90;;;-141.84;89.23;19817.91;5006506;28;20234;-62
2023/10/08 06:53:29;;;;;;;5.50;2.30;;;11.60;99.90;;;-141.84;88.92;19830.09;4998480;28;20240;-62
2023/10/08 06:56:03;;;;;;;4.53;2.30;;;11.60;99.90;;;-141.84;88.84;19824.00;4997397;28;20214;-60
2023/10/08 06:58:33;;;;;;;3.27;2.33;;;11.60;99.90;;;-141.84;89.14;19813.84;5006073;28;20748;-60
2023/10/08 07:01:04;;;;;;;4.27;1.90;;;11.60;99.90;;;-141.84;89.04;19842.28;5005474;28;20230;-62
2023/10/08 07:03:33;;;;;;;6.63;2.10;;;11.70;99.90;;;-141.84;88.70;19813.84;4979628;28;20728;-62
2023/10/08 07:06:16;;;;;;;6.67;2.13;;;11.80;99.90;;;-141.84;88.94;19821.97;4976906;28;20238;-61
2023/10/08 07:08:52;;;;;;;4.37;1.90;;;11.70;99.90;;;-141.84;88.78;19801.66;4986056;28;20922;-62
2023/10/08 07:11:21;;;;;;;5.60;1.93;;;11.70;99.90;;;-141.84;87.73;19826.03;4982757;28;20222;-62
2023/10/08 07:13:52;;;;;;;5.17;2.10;;;11.70;99.90;;;-141.84;84.58;19895.13;5005530;28;20223;-62
2023/10/08 07:16:20;;;;;;;6.03;1.90;;;11.70;99.90;;;-141.84;84.88;19866.69;5005537;28;20253;-62
2023/10/08 07:18:52;;;;;;;3.33;1.37;;;11.70;99.90;;;-141.84;84.01;19889.03;5005565;28;20234;-62
2023/10/08 07:21:28;;;;;;;4.93;1.90;;;11.60;99.90;;;-141.84;85.00;19858.56;4998407;28;20238;-62
2023/10/08 07:23:59;;;;;;;4.67;1.60;;;11.60;99.90;;;-141.84;86.16;19856.53;5005259;28;20256;-62
2023/10/08 07:26:35;;;;;;;6.77;2.27;;;11.60;99.90;;;-141.84;86.63;19870.75;5005193;28;20592;-61
2023/10/08 07:29:08;;;;;;;2.97;1.60;;;11.60;99.90;;;-141.84;86.96;19854.50;5004895;28;20212;-63
2023/10/08 07:31:41;;;;;;;4.63;1.77;;;11.50;99.90;;;-141.84;85.63;19858.56;5003092;28;20683;-62
2023/10/08 07:34:17;;;;;;;4.27;1.90;;;11.70;99.90;;;-141.84;84.09;19874.81;5005192;28;20235;-62
2023/10/08 07:36:49;;;;;;;3.60;1.53;;;11.70;99.90;;;-141.84;83.31;19874.81;5005961;28;20230;-62
2023/10/08 07:39:33;;;;;;;5.23;2.20;;;11.70;99.90;;;-141.84;82.99;19838.22;4997671;28;20725;-62
2023/10/08 07:42:06;;;;;;;5.33;1.90;;;11.60;99.90;;;-141.84;82.95;19854.50;5004930;28;20230;-62
2023/10/08 07:44:38;;;;;;;4.00;1.60;;;11.60;99.90;;;-141.84;79.62;19911.41;5005193;28;20304;-63
2023/10/08 07:47:13;;;;;;;2.37;1.40;;;11.60;99.90;;;-141.84;78.50;19954.06;5004894;28;20238;-62
2023/10/08 07:49:44;;;;;;;2.57;1.60;;;11.60;99.90;;;-141.84;77.00;19968.31;4983533;28;20767;-62
2023/10/08 07:52:15;;;;;;;2.43;1.70;;;11.60;99.90;;;-141.84;78.36;19945.94;4990016;28;20584;-62
2023/10/08 07:54:44;;;;;;;3.73;1.50;;;11.60;99.90;;;-141.84;78.59;19929.69;4969334;28;20331;-61
2023/10/08 07:57:17;;;;;;;3.13;1.80;;;11.70;99.90;;;-141.84;77.46;19947.97;4988518;28;20285;-62
2023/10/08 07:59:47;;;;;;;3.47;1.57;;;11.80;99.90;;;-141.84;76.78;19966.28;4996251;28;20239;-62
2023/10/08 08:02:20;;;;;;;3.22;1.98;;;11.70;99.90;;;-141.84;77.32;19974.41;4991929;28;20233;-62
2023/10/08 08:04:52;;;;;;;7.28;1.50;;;11.70;99.90;;;-141.84;77.55;19931.72;5004612;28;20623;-62
2023/10/08 08:07:21;;;;;;;4.37;1.73;;;11.70;99.90;;;-141.84;77.67;19976.44;4997766;28;20684;-63
2023/10/08 08:09:58;;;;;;;4.70;1.87;;;11.80;99.90;;;-141.84;79.31;19958.13;5004142;28;20242;-62
2023/10/08 08:12:28;;;;;;;3.07;1.90;;;11.80;99.90;;;-141.84;80.32;19939.84;5004211;28;20308;-62
2023/10/08 08:14:57;;;;;;;3.67;1.70;;;11.80;99.90;;;-141.84;80.85;19954.06;5004419;28;20234;-63
2023/10/08 08:17:26;;;;;;;6.20;2.07;;;11.90;99.90;;;-141.84;78.93;20043.50;4996452;28;20222;-63
2023/10/08 08:19:54;;;;;;;4.22;1.92;;;12.00;99.90;;;-141.84;78.43;19978.47;5004270;28;20207;-63
2023/10/08 08:22:30;;;;;;;3.97;1.77;;;12.10;99.90;;;-141.84;78.43;19998.78;5004661;28;20627;-63
2023/10/08 08:25:05;;;;;;;4.73;1.73;;;12.10;99.90;;;-141.84;78.50;20059.75;5004452;28;20242;-63
2023/10/08 08:27:34;;;;;;;3.17;1.75;;;12.30;99.90;;;-141.84;78.16;20013.00;5000149;28;20484;-62
2023/10/08 08:30:11;;;;;;;3.13;1.70;;;12.30;99.90;;;-141.84;78.31;20065.84;5003099;28;20262;-63
2023/10/08 08:32:43;;;;;;;2.80;1.83;;;12.40;99.90;;;-141.84;78.80;20065.84;5003741;28;20613;-63
2023/10/08 08:35:16;;;;;;;4.25;2.20;;;12.50;99.90;;;-141.84;75.28;20092.28;4996525;28;20250;-63
2023/10/08 08:37:46;;;;;;;3.70;1.80;;;12.60;99.90;;;-141.84;76.11;20102.44;5004884;28;20294;-63
2023/10/08 08:40:18;;;;;;;3.93;1.93;;;12.60;99.90;;;-141.84;76.85;20098.38;5003636;28;20235;-62
2023/10/08 08:42:47;;;;;;;2.63;1.98;;;12.70;99.90;;;-141.84;77.49;20134.97;5001640;28;20269;-63
2023/10/08 08:45:21;;;;;;;5.00;2.08;;;12.90;99.90;;;-141.84;77.69;20108.53;4993492;28;20214;-63
2023/10/08 08:47:49;;;;;;;4.30;2.10;;;12.90;99.90;;;-141.84;77.23;20118.69;5002157;28;20699;-63
2023/10/08 08:50:19;;;;;;;5.38;2.20;;;12.90;99.90;;;-141.84;74.33;20214.22;5003203;28;20299;-63
2023/10/08 08:52:48;;;;;;;3.55;1.90;;;13.10;99.90;;;-141.84;72.89;20246.75;4995286;28;20218;-65
2023/10/08 08:55:17;;;;;;;5.47;2.00;;;13.10;99.90;;;-141.84;71.50;20224.41;4995577;28;20313;-63
2023/10/08 08:57:50;;;;;;;3.72;1.80;;;13.20;99.90;;;-141.84;71.83;20267.09;5003835;28;20588;-63
2023/10/08 09:00:25;;;;;;;3.90;2.28;;;13.30;99.90;;;-141.84;71.03;20311.78;5003871;28;20341;-64
2023/10/08 09:02:55;;;;;;;3.83;2.00;;;13.50;99.90;;;-141.84;72.08;20340.25;5003368;28;20225;-63
2023/10/08 09:05:27;;;;;;;3.88;2.15;;;13.50;99.90;;;-141.84;71.92;20307.72;4995685;28;20285;-62
2023/10/08 09:07:58;;;;;;;4.15;2.38;;;13.70;99.90;;;-141.84;70.64;20350.41;5004154;28;20215;-63
2023/10/08 09:10:28;;;;;;;4.93;2.17;;;13.70;99.90;;;-141.84;71.28;20319.94;5003853;28;20203;-64
2023/10/08 09:12:59;;;;;;;5.82;2.38;;;13.80;99.90;;;-141.84;71.02;20378.88;4985235;28;20267;-63
2023/10/08 09:15:30;;;;;;;4.50;2.10;;;13.90;99.90;;;-141.84;68.78;20423.59;4990933;28;21410;-63
2023/10/08 09:18:00;;;;;;;4.10;2.20;;;13.90;99.90;;;-141.84;67.84;20399.19;5003308;28;20366;-63
2023/10/08 09:20:31;;;;;;;4.35;2.00;;;13.90;99.90;;;-141.84;69.14;20378.88;5002931;28;20230;-63
2023/10/08 09:23:21;;;;;;;4.10;2.38;;;13.90;99.90;;;-141.84;70.11;20425.63;4993295;28;20640;-63
2023/10/08 09:25:51;;;;;;;4.32;2.50;;;14.00;99.90;;;-141.84;70.25;20419.53;4998756;28;20261;-63
2023/10/08 09:28:21;;;;;;;4.93;2.40;;;14.00;99.90;;;-141.84;70.69;20395.13;5003398;28;20301;-65
2023/10/08 09:30:53;;;;;;;3.92;2.40;;;14.10;99.90;;;-141.84;70.64;20443.91;5003454;28;20234;-63
2023/10/08 09:33:21;;;;;;;4.93;2.55;;;14.20;99.90;;;-141.84;70.48;20421.56;4995273;28;20234;-63
2023/10/08 09:35:51;;;;;;;5.55;2.80;;;14.20;99.90;;;-141.84;69.05;20399.19;5002792;28;20227;-62
2023/10/08 09:38:23;;;;;;;4.40;2.70;;;14.10;99.90;;;-141.84;69.78;20423.59;5003226;28;20230;-63
2023/10/08 09:40:54;;;;;;;6.22;2.95;;;14.10;99.90;;;-141.84;70.17;20378.88;5002506;28;20677;-62
2023/10/08 09:43:23;;;;;;;3.30;2.80;;;14.00;99.90;;;-141.84;70.79;20370.75;4976043;28;20436;-63
2023/10/08 09:46:01;;;;;;;5.50;3.25;;;13.90;99.90;;;-141.84;69.70;20425.63;4983248;28;20793;-63
2023/10/08 09:48:31;;;;;;;5.57;3.40;;;13.90;99.90;;;-141.84;69.85;20415.47;4989518;28;20724;-63
2023/10/08 09:51:06;;;;;;;5.35;4.30;;;13.90;99.90;;;-141.84;69.78;20415.47;5001328;28;20591;-62
2023/10/08 09:53:48;;;;;;;3.97;3.53;;;13.90;99.90;;;-141.84;70.71;20368.72;4995799;28;20237;-63
2023/10/08 09:56:19;;;;;;;5.78;3.80;;;13.90;99.90;;;-141.84;72.01;20382.94;5000805;28;20745;-64
2023/10/08 09:58:50;;;;;;;6.90;4.03;;;14.00;99.90;;;-141.84;69.46;20405.31;5000695;28;20708;-63
2023/10/08 10:01:22;;;;;;;6.47;4.40;;;14.00;99.90;;;-141.84;69.29;20423.59;4993809;28;20226;-64
2023/10/08 10:03:52;;;;;;;6.63;4.35;;;14.10;99.90;;;-141.84;70.67;20380.91;5002646;28;20261;-63
2023/10/08 10:06:20;;;;;;;7.47;4.70;;;14.10;99.90;;;-141.84;70.43;20362.63;5002207;28;20227;-63
2023/10/08 10:08:49;;;;;;;6.35;4.50;;;14.00;99.90;;;-141.84;70.99;20407.34;5002703;28;20318;-63
2023/10/08 10:11:18;;;;;;;5.85;4.43;;;14.00;99.90;;;-141.84;70.67;20407.34;4987940;28;20806;-63
2023/10/08 10:13:52;;;;;;;8.07;5.03;;;14.10;99.90;;;-141.84;68.36;20415.47;4987321;28;20710;-63
2023/10/08 10:16:23;;;;;;;6.97;5.20;;;14.10;99.90;;;-141.84;68.06;20411.41;4974604;28;20222;-61
2023/10/08 10:18:51;;;;;;;7.68;5.30;;;14.00;99.90;;;-141.84;68.67;20382.94;4993820;28;20237;-61
2023/10/08 10:21:30;;;;;;;8.02;7.03;;;14.00;99.90;;;-141.84;69.71;20417.50;4989203;28;20241;-61
2023/10/08 10:23:59;;;;;;;8.15;7.30;;;14.10;99.90;;;-141.84;70.14;20391.06;4986675;28;20234;-61
2023/10/08 10:26:30;;;;;;;9.30;6.18;;;14.00;99.90;;;-141.84;71.29;20419.53;4995195;28;20234;-61
2023/10/08 10:29:22;;;;;;;6.05;4.53;;;14.00;99.90;;;-141.84;70.49;20445.94;4995752;28;20301;-61
2023/10/08 10:31:54;;;;;;;8.63;4.57;;;14.30;99.90;;;-141.84;69.49;20480.50;4995896;28;20228;-61
2023/10/08 10:34:27;;;;;;;6.90;4.72;;;14.40;99.90;;;-141.84;68.88;20515.06;4995751;28;20262;-61
2023/10/08 10:37:02;;;;;;;7.70;4.13;;;14.50;99.90;;;-141.84;67.89;20517.09;4995875;28;20885;-61
2023/10/08 10:39:34;;;;;;;6.03;3.95;;;14.50;99.90;;;-141.84;66.83;20533.34;4988630;28;20230;-60
2023/10/08 10:42:06;;;;;;;6.97;4.03;;;14.60;99.90;;;-141.84;68.53;20496.78;4982845;28;20325;-61